sensor_id;sensor_type;location;lat;lon;timestamp;temperature;humidity
61392;DHT22;47261;52.892;5.738;2024-03-22T00:01:44;11.60;99.90
61392;DHT22;47261;52.892;5.738;2024-03-22T00:04:11;11.60;99.90
61392;DHT22;47261;52.892;5.738;2024-03-22T00:06:36;11.60;99.90
61392;DHT22;47261;52.892;5.738;2024-03-22T00:09:02;11.60;99.90
61392;DHT22;47261;52.892;5.738;2024-03-22T00:11:28;11.60;99.90
61392;DHT22;47261;52.892;5.738;2024-03-22T00:13:53;11.60;99.90
61392;DHT22;47261;52.892;5.738;2024-03-22T00:16:19;11.60;99.90
61392;DHT22;47261;52.892;5.738;2024-03-22T00:18:45;11.60;99.90
61392;DHT22;47261;52.892;5.738;2024-03-22T00:21:10;11.60;99.90
61392;DHT22;47261;52.892;5.738;2024-03-22T00:23:36;11.60;99.90
61392;DHT22;47261;52.892;5.738;2024-03-22T00:26:01;11.60;99.90
61392;DHT22;47261;52.892;5.738;2024-03-22T00:28:27;11.60;99.90
61392;DHT22;47261;52.892;5.738;2024-03-22T00:30:53;11.60;99.90
61392;DHT22;47261;52.892;5.738;2024-03-22T00:33:18;11.60;99.90
61392;DHT22;47261;52.892;5.738;2024-03-22T00:35:44;11.60;99.90
61392;DHT22;47261;52.892;5.738;2024-03-22T00:38:09;11.60;99.90
61392;DHT22;47261;52.892;5.738;2024-03-22T00:40:35;11.60;99.90
61392;DHT22;47261;52.892;5.738;2024-03-22T00:43:01;11.60;99.90
61392;DHT22;47261;52.892;5.738;2024-03-22T00:45:26;11.60;99.90
61392;DHT22;47261;52.892;5.738;2024-03-22T00:47:52;11.60;99.90
61392;DHT22;47261;52.892;5.738;2024-03-22T00:50:18;11.60;99.90
61392;DHT22;47261;52.892;5.738;2024-03-22T00:52:44;11.60;99.90
61392;DHT22;47261;52.892;5.738;2024-03-22T00:55:09;11.70;99.90
61392;DHT22;47261;52.892;5.738;2024-03-22T00:57:35;11.70;99.90
61392;DHT22;47261;52.892;5.738;2024-03-22T01:00:00;11.70;99.90
61392;DHT22;47261;52.892;5.738;2024-03-22T01:02:26;11.70;99.90
61392;DHT22;47261;52.892;5.738;2024-03-22T01:04:51;11.70;99.90
61392;DHT22;47261;52.892;5.738;2024-03-22T01:07:17;11.70;99.90
61392;DHT22;47261;52.892;5.738;2024-03-22T01:09:43;11.70;99.90
61392;DHT22;47261;52.892;5.738;2024-03-22T01:12:10;11.70;99.90
61392;DHT22;47261;52.892;5.738;2024-03-22T01:14:36;11.70;99.90
61392;DHT22;47261;52.892;5.738;2024-03-22T01:17:02;11.70;99.90
61392;DHT22;47261;52.892;5.738;2024-03-22T01:19:27;11.70;99.90
61392;DHT22;47261;52.892;5.738;2024-03-22T01:21:53;11.70;99.90
61392;DHT22;47261;52.892;5.738;2024-03-22T01:24:19;11.70;99.90
61392;DHT22;47261;52.892;5.738;2024-03-22T01:26:44;11.70;99.90
61392;DHT22;47261;52.892;5.738;2024-03-22T01:29:10;11.70;99.90
61392;DHT22;47261;52.892;5.738;2024-03-22T01:31:36;11.70;99.90
61392;DHT22;47261;52.892;5.738;2024-03-22T01:34:01;11.70;99.90
61392;DHT22;47261;52.892;5.738;2024-03-22T01:36:27;11.70;99.90
61392;DHT22;47261;52.892;5.738;2024-03-22T01:38:52;11.60;99.90
61392;DHT22;47261;52.892;5.738;2024-03-22T01:41:18;11.70;99.90
61392;DHT22;47261;52.892;5.738;2024-03-22T01:43:44;11.60;99.90
61392;DHT22;47261;52.892;5.738;2024-03-22T01:46:09;11.60;99.90
61392;DHT22;47261;52.892;5.738;2024-03-22T01:48:35;11.60;99.90
61392;DHT22;47261;52.892;5.738;2024-03-22T01:51:02;11.60;99.90
61392;DHT22;47261;52.892;5.738;2024-03-22T01:53:29;11.60;99.90
61392;DHT22;47261;52.892;5.738;2024-03-22T01:55:55;11.60;99.90
61392;DHT22;47261;52.892;5.738;2024-03-22T01:58:21;11.60;99.90
61392;DHT22;47261;52.892;5.738;2024-03-22T02:00:47;11.60;99.90
61392;DHT22;47261;52.892;5.738;2024-03-22T02:03:13;11.60;99.90
61392;DHT22;47261;52.892;5.738;2024-03-22T02:05:38;11.50;99.90
61392;DHT22;47261;52.892;5.738;2024-03-22T02:08:04;11.50;99.90
61392;DHT22;47261;52.892;5.738;2024-03-22T02:10:30;11.50;99.90
61392;DHT22;47261;52.892;5.738;2024-03-22T02:12:56;11.50;99.90
61392;DHT22;47261;52.892;5.738;2024-03-22T02:15:22;11.50;99.90
61392;DHT22;47261;52.892;5.738;2024-03-22T02:17:47;11.50;99.90
61392;DHT22;47261;52.892;5.738;2024-03-22T02:20:13;11.50;99.90
61392;DHT22;47261;52.892;5.738;2024-03-22T02:22:39;11.50;99.90
61392;DHT22;47261;52.892;5.738;2024-03-22T02:25:04;11.50;99.90
61392;DHT22;47261;52.892;5.738;2024-03-22T02:27:30;11.40;99.90
61392;DHT22;47261;52.892;5.738;2024-03-22T02:29:56;11.40;99.90
61392;DHT22;47261;52.892;5.738;2024-03-22T02:32:21;11.40;99.90
61392;DHT22;47261;52.892;5.738;2024-03-22T02:34:47;11.40;99.90
61392;DHT22;47261;52.892;5.738;2024-03-22T02:37:13;11.40;99.90
61392;DHT22;47261;52.892;5.738;2024-03-22T02:39:38;11.40;99.90
61392;DHT22;47261;52.892;5.738;2024-03-22T02:42:04;11.40;99.90
61392;DHT22;47261;52.892;5.738;2024-03-22T02:44:30;11.40;99.90
61392;DHT22;47261;52.892;5.738;2024-03-22T02:46:55;11.30;99.90
61392;DHT22;47261;52.892;5.738;2024-03-22T02:49:21;11.30;99.90
61392;DHT22;47261;52.892;5.738;2024-03-22T02:51:46;11.30;99.90
61392;DHT22;47261;52.892;5.738;2024-03-22T02:54:12;11.30;99.90
61392;DHT22;47261;52.892;5.738;2024-03-22T02:56:38;11.30;99.90
61392;DHT22;47261;52.892;5.738;2024-03-22T02:59:03;11.30;99.90
61392;DHT22;47261;52.892;5.738;2024-03-22T03:01:29;11.30;99.90
61392;DHT22;47261;52.892;5.738;2024-03-22T03:03:54;11.30;99.90
61392;DHT22;47261;52.892;5.738;2024-03-22T03:06:20;11.30;99.90
61392;DHT22;47261;52.892;5.738;2024-03-22T03:08:46;11.20;99.90
61392;DHT22;47261;52.892;5.738;2024-03-22T03:11:13;11.20;99.90
61392;DHT22;47261;52.892;5.738;2024-03-22T03:13:39;11.20;99.90
61392;DHT22;47261;52.892;5.738;2024-03-22T03:16:05;11.20;99.90
61392;DHT22;47261;52.892;5.738;2024-03-22T03:18:31;11.20;99.90
61392;DHT22;47261;52.892;5.738;2024-03-22T03:20:56;11.20;99.90
61392;DHT22;47261;52.892;5.738;2024-03-22T03:23:22;11.10;99.90
61392;DHT22;47261;52.892;5.738;2024-03-22T03:25:47;11.20;99.90
61392;DHT22;47261;52.892;5.738;2024-03-22T03:28:14;11.20;99.90
61392;DHT22;47261;52.892;5.738;2024-03-22T03:30:39;11.10;99.90
61392;DHT22;47261;52.892;5.738;2024-03-22T03:33:05;11.10;99.90
61392;DHT22;47261;52.892;5.738;2024-03-22T03:35:31;11.10;99.90
61392;DHT22;47261;52.892;5.738;2024-03-22T03:37:56;11.10;99.90
61392;DHT22;47261;52.892;5.738;2024-03-22T03:40:22;11.10;99.90
61392;DHT22;47261;52.892;5.738;2024-03-22T03:42:50;11.10;99.90
61392;DHT22;47261;52.892;5.738;2024-03-22T03:45:16;11.10;99.90
61392;DHT22;47261;52.892;5.738;2024-03-22T03:47:42;11.10;99.90
61392;DHT22;47261;52.892;5.738;2024-03-22T03:50:07;11.10;99.90
61392;DHT22;47261;52.892;5.738;2024-03-22T03:52:33;11.10;99.90
61392;DHT22;47261;52.892;5.738;2024-03-22T03:54:59;11.10;99.90
61392;DHT22;47261;52.892;5.738;2024-03-22T03:57:24;11.10;99.90
61392;DHT22;47261;52.892;5.738;2024-03-22T03:59:50;11.10;99.90
61392;DHT22;47261;52.892;5.738;2024-03-22T04:02:15;11.10;99.90
61392;DHT22;47261;52.892;5.738;2024-03-22T04:04:41;11.10;99.90
61392;DHT22;47261;52.892;5.738;2024-03-22T04:07:07;11.10;99.90
61392;DHT22;47261;52.892;5.738;2024-03-22T04:09:32;11.10;99.90
61392;DHT22;47261;52.892;5.738;2024-03-22T04:11:59;11.10;99.90
61392;DHT22;47261;52.892;5.738;2024-03-22T04:14:28;11.20;99.90
61392;DHT22;47261;52.892;5.738;2024-03-22T04:16:53;11.10;99.90
61392;DHT22;47261;52.892;5.738;2024-03-22T04:19:21;11.10;99.90
61392;DHT22;47261;52.892;5.738;2024-03-22T04:21:47;11.10;99.90
61392;DHT22;47261;52.892;5.738;2024-03-22T04:24:13;11.10;99.90
61392;DHT22;47261;52.892;5.738;2024-03-22T04:26:39;11.10;99.90
61392;DHT22;47261;52.892;5.738;2024-03-22T04:29:04;11.10;99.90
61392;DHT22;47261;52.892;5.738;2024-03-22T04:31:30;11.10;99.90
61392;DHT22;47261;52.892;5.738;2024-03-22T04:33:56;11.10;99.90
61392;DHT22;47261;52.892;5.738;2024-03-22T04:36:21;11.10;99.90
61392;DHT22;47261;52.892;5.738;2024-03-22T04:38:48;11.10;99.90
61392;DHT22;47261;52.892;5.738;2024-03-22T04:41:13;11.10;99.90
61392;DHT22;47261;52.892;5.738;2024-03-22T04:43:39;11.10;99.90
61392;DHT22;47261;52.892;5.738;2024-03-22T04:46:04;11.10;99.90
61392;DHT22;47261;52.892;5.738;2024-03-22T04:48:30;11.10;99.90
61392;DHT22;47261;52.892;5.738;2024-03-22T04:50:56;11.10;99.90
61392;DHT22;47261;52.892;5.738;2024-03-22T04:53:21;11.10;99.90
61392;DHT22;47261;52.892;5.738;2024-03-22T04:55:47;11.10;99.90
61392;DHT22;47261;52.892;5.738;2024-03-22T04:58:14;11.10;99.90
61392;DHT22;47261;52.892;5.738;2024-03-22T05:00:43;11.10;99.90
61392;DHT22;47261;52.892;5.738;2024-03-22T05:03:09;11.10;99.90
61392;DHT22;47261;52.892;5.738;2024-03-22T05:05:35;11.10;99.90
61392;DHT22;47261;52.892;5.738;2024-03-22T05:08:01;11.10;99.90
61392;DHT22;47261;52.892;5.738;2024-03-22T05:10:28;11.20;99.90
61392;DHT22;47261;52.892;5.738;2024-03-22T05:12:57;11.20;99.90
61392;DHT22;47261;52.892;5.738;2024-03-22T05:15:23;11.10;99.90
61392;DHT22;47261;52.892;5.738;2024-03-22T05:17:51;11.10;99.90
61392;DHT22;47261;52.892;5.738;2024-03-22T05:20:19;11.10;99.90
61392;DHT22;47261;52.892;5.738;2024-03-22T05:22:46;11.10;99.90
61392;DHT22;47261;52.892;5.738;2024-03-22T05:25:12;11.10;99.90
61392;DHT22;47261;52.892;5.738;2024-03-22T05:27:40;11.10;99.90
61392;DHT22;47261;52.892;5.738;2024-03-22T05:30:06;11.10;99.90
61392;DHT22;47261;52.892;5.738;2024-03-22T05:32:32;11.00;99.90
61392;DHT22;47261;52.892;5.738;2024-03-22T05:34:58;11.10;99.90
61392;DHT22;47261;52.892;5.738;2024-03-22T05:37:23;11.10;99.90
61392;DHT22;47261;52.892;5.738;2024-03-22T05:39:49;11.00;99.90
61392;DHT22;47261;52.892;5.738;2024-03-22T05:42:15;11.00;99.90
61392;DHT22;47261;52.892;5.738;2024-03-22T05:44:40;11.10;99.90
61392;DHT22;47261;52.892;5.738;2024-03-22T05:47:06;11.00;99.90
61392;DHT22;47261;52.892;5.738;2024-03-22T05:49:32;11.00;99.90
61392;DHT22;47261;52.892;5.738;2024-03-22T05:51:57;11.00;99.90
61392;DHT22;47261;52.892;5.738;2024-03-22T05:54:23;11.00;99.90
61392;DHT22;47261;52.892;5.738;2024-03-22T05:56:49;11.00;99.90
61392;DHT22;47261;52.892;5.738;2024-03-22T05:59:14;11.00;99.90
61392;DHT22;47261;52.892;5.738;2024-03-22T06:01:40;11.00;99.90
61392;DHT22;47261;52.892;5.738;2024-03-22T06:04:06;11.00;99.90
61392;DHT22;47261;52.892;5.738;2024-03-22T06:06:33;11.00;99.90
61392;DHT22;47261;52.892;5.738;2024-03-22T06:08:59;11.00;99.90
61392;DHT22;47261;52.892;5.738;2024-03-22T06:11:28;11.10;99.90
61392;DHT22;47261;52.892;5.738;2024-03-22T06:13:53;11.10;99.90
61392;DHT22;47261;52.892;5.738;2024-03-22T06:16:19;11.00;99.90
61392;DHT22;47261;52.892;5.738;2024-03-22T06:18:44;11.10;99.90
61392;DHT22;47261;52.892;5.738;2024-03-22T06:21:10;11.10;99.90
61392;DHT22;47261;52.892;5.738;2024-03-22T06:23:36;11.10;99.90
61392;DHT22;47261;52.892;5.738;2024-03-22T06:26:01;11.10;99.90
61392;DHT22;47261;52.892;5.738;2024-03-22T06:28:28;11.00;99.90
61392;DHT22;47261;52.892;5.738;2024-03-22T06:30:54;11.10;99.90
61392;DHT22;47261;52.892;5.738;2024-03-22T06:33:20;11.10;99.90
61392;DHT22;47261;52.892;5.738;2024-03-22T06:35:46;11.10;99.90
61392;DHT22;47261;52.892;5.738;2024-03-22T06:38:12;11.10;99.90
61392;DHT22;47261;52.892;5.738;2024-03-22T06:40:38;11.20;99.90
61392;DHT22;47261;52.892;5.738;2024-03-22T06:43:04;11.20;99.90
61392;DHT22;47261;52.892;5.738;2024-03-22T06:45:30;11.20;99.90
61392;DHT22;47261;52.892;5.738;2024-03-22T06:47:55;11.10;99.90
61392;DHT22;47261;52.892;5.738;2024-03-22T06:50:21;11.20;99.90
61392;DHT22;47261;52.892;5.738;2024-03-22T06:52:53;11.20;99.90
61392;DHT22;47261;52.892;5.738;2024-03-22T06:55:20;11.20;99.90
61392;DHT22;47261;52.892;5.738;2024-03-22T06:57:49;11.20;99.90
61392;DHT22;47261;52.892;5.738;2024-03-22T07:00:15;11.20;99.90
61392;DHT22;47261;52.892;5.738;2024-03-22T07:02:41;11.20;99.90
61392;DHT22;47261;52.892;5.738;2024-03-22T07:05:10;11.20;99.90
61392;DHT22;47261;52.892;5.738;2024-03-22T07:07:36;11.20;99.90
61392;DHT22;47261;52.892;5.738;2024-03-22T07:10:03;11.20;99.90
61392;DHT22;47261;52.892;5.738;2024-03-22T07:12:29;11.20;99.90
61392;DHT22;47261;52.892;5.738;2024-03-22T07:14:58;11.30;99.90
61392;DHT22;47261;52.892;5.738;2024-03-22T07:17:24;11.30;99.90
61392;DHT22;47261;52.892;5.738;2024-03-22T07:19:53;11.30;99.90
61392;DHT22;47261;52.892;5.738;2024-03-22T07:22:19;11.30;99.90
61392;DHT22;47261;52.892;5.738;2024-03-22T07:24:45;11.30;99.90
61392;DHT22;47261;52.892;5.738;2024-03-22T07:27:11;11.30;99.90
61392;DHT22;47261;52.892;5.738;2024-03-22T07:29:37;11.30;99.90
61392;DHT22;47261;52.892;5.738;2024-03-22T07:32:03;11.30;99.90
61392;DHT22;47261;52.892;5.738;2024-03-22T07:34:29;11.30;99.90
61392;DHT22;47261;52.892;5.738;2024-03-22T07:36:55;11.30;99.90
61392;DHT22;47261;52.892;5.738;2024-03-22T07:39:21;11.30;99.90
61392;DHT22;47261;52.892;5.738;2024-03-22T07:41:46;11.30;99.90
61392;DHT22;47261;52.892;5.738;2024-03-22T07:44:12;11.30;99.90
61392;DHT22;47261;52.892;5.738;2024-03-22T07:46:37;11.30;99.90
61392;DHT22;47261;52.892;5.738;2024-03-22T07:49:03;11.30;99.90
61392;DHT22;47261;52.892;5.738;2024-03-22T07:51:30;11.30;99.90
61392;DHT22;47261;52.892;5.738;2024-03-22T07:53:55;11.20;99.90
61392;DHT22;47261;52.892;5.738;2024-03-22T07:56:21;11.20;99.90
61392;DHT22;47261;52.892;5.738;2024-03-22T07:58:47;11.20;99.90
61392;DHT22;47261;52.892;5.738;2024-03-22T08:01:13;11.20;99.90
61392;DHT22;47261;52.892;5.738;2024-03-22T08:03:39;11.20;99.90
61392;DHT22;47261;52.892;5.738;2024-03-22T08:06:04;11.10;99.90
61392;DHT22;47261;52.892;5.738;2024-03-22T08:08:30;11.20;99.90
61392;DHT22;47261;52.892;5.738;2024-03-22T08:10:56;11.20;99.90
61392;DHT22;47261;52.892;5.738;2024-03-22T08:13:22;11.20;99.90
61392;DHT22;47261;52.892;5.738;2024-03-22T08:15:47;11.10;99.90
61392;DHT22;47261;52.892;5.738;2024-03-22T08:18:13;11.10;99.90
61392;DHT22;47261;52.892;5.738;2024-03-22T08:20:39;11.10;99.90
61392;DHT22;47261;52.892;5.738;2024-03-22T08:23:05;11.10;99.90
61392;DHT22;47261;52.892;5.738;2024-03-22T08:25:31;11.10;99.90
61392;DHT22;47261;52.892;5.738;2024-03-22T08:27:57;11.10;99.90
61392;DHT22;47261;52.892;5.738;2024-03-22T08:30:23;11.10;99.90
61392;DHT22;47261;52.892;5.738;2024-03-22T08:32:49;11.10;99.90
61392;DHT22;47261;52.892;5.738;2024-03-22T08:35:15;11.10;99.90
61392;DHT22;47261;52.892;5.738;2024-03-22T08:37:41;11.10;99.90
61392;DHT22;47261;52.892;5.738;2024-03-22T08:40:07;11.10;99.90
61392;DHT22;47261;52.892;5.738;2024-03-22T08:42:33;11.20;99.90
61392;DHT22;47261;52.892;5.738;2024-03-22T08:44:58;11.20;99.90
61392;DHT22;47261;52.892;5.738;2024-03-22T08:47:24;11.20;99.90
61392;DHT22;47261;52.892;5.738;2024-03-22T08:49:50;11.20;99.90
61392;DHT22;47261;52.892;5.738;2024-03-22T08:52:16;11.10;99.90
61392;DHT22;47261;52.892;5.738;2024-03-22T08:54:41;11.20;99.90
61392;DHT22;47261;52.892;5.738;2024-03-22T08:57:07;11.10;99.90
61392;DHT22;47261;52.892;5.738;2024-03-22T08:59:32;11.10;99.90
61392;DHT22;47261;52.892;5.738;2024-03-22T09:01:58;11.10;99.90
61392;DHT22;47261;52.892;5.738;2024-03-22T09:04:25;11.10;99.90
61392;DHT22;47261;52.892;5.738;2024-03-22T09:06:50;11.10;99.90
61392;DHT22;47261;52.892;5.738;2024-03-22T09:09:16;11.10;99.90
61392;DHT22;47261;52.892;5.738;2024-03-22T09:11:42;11.00;99.90
61392;DHT22;47261;52.892;5.738;2024-03-22T09:14:08;11.10;99.90
61392;DHT22;47261;52.892;5.738;2024-03-22T09:16:34;11.00;99.90
61392;DHT22;47261;52.892;5.738;2024-03-22T09:19:00;11.10;99.90
61392;DHT22;47261;52.892;5.738;2024-03-22T09:21:25;11.10;99.90
61392;DHT22;47261;52.892;5.738;2024-03-22T09:23:51;11.10;99.90
61392;DHT22;47261;52.892;5.738;2024-03-22T09:26:17;11.10;99.90
61392;DHT22;47261;52.892;5.738;2024-03-22T09:28:45;11.10;99.90
61392;DHT22;47261;52.892;5.738;2024-03-22T09:31:11;11.10;99.90
61392;DHT22;47261;52.892;5.738;2024-03-22T09:33:36;11.10;99.90
61392;DHT22;47261;52.892;5.738;2024-03-22T09:36:03;11.20;99.90
61392;DHT22;47261;52.892;5.738;2024-03-22T09:38:29;11.20;99.90
61392;DHT22;47261;52.892;5.738;2024-03-22T09:40:55;11.10;99.90
61392;DHT22;47261;52.892;5.738;2024-03-22T09:43:21;11.20;99.90
61392;DHT22;47261;52.892;5.738;2024-03-22T09:45:48;11.20;99.90
61392;DHT22;47261;52.892;5.738;2024-03-22T09:48:19;11.30;99.90
61392;DHT22;47261;52.892;5.738;2024-03-22T09:50:48;11.30;99.90
61392;DHT22;47261;52.892;5.738;2024-03-22T09:53:19;11.30;99.90
61392;DHT22;47261;52.892;5.738;2024-03-22T09:55:47;11.30;99.90
61392;DHT22;47261;52.892;5.738;2024-03-22T09:58:15;11.30;99.90
61392;DHT22;47261;52.892;5.738;2024-03-22T10:00:42;11.30;99.90
61392;DHT22;47261;52.892;5.738;2024-03-22T10:03:10;11.30;99.90
61392;DHT22;47261;52.892;5.738;2024-03-22T10:05:36;11.30;99.90
61392;DHT22;47261;52.892;5.738;2024-03-22T10:08:02;11.20;99.90
61392;DHT22;47261;52.892;5.738;2024-03-22T10:10:28;11.30;99.90
61392;DHT22;47261;52.892;5.738;2024-03-22T10:12:54;11.30;99.90
61392;DHT22;47261;52.892;5.738;2024-03-22T10:15:19;11.30;99.90
61392;DHT22;47261;52.892;5.738;2024-03-22T10:17:45;11.30;99.90
61392;DHT22;47261;52.892;5.738;2024-03-22T10:20:14;11.30;99.90
61392;DHT22;47261;52.892;5.738;2024-03-22T10:22:47;11.30;99.90
61392;DHT22;47261;52.892;5.738;2024-03-22T10:25:13;11.30;99.90
61392;DHT22;47261;52.892;5.738;2024-03-22T10:27:40;11.30;99.90
61392;DHT22;47261;52.892;5.738;2024-03-22T10:30:09;11.30;99.90
61392;DHT22;47261;52.892;5.738;2024-03-22T10:32:36;11.20;99.90
61392;DHT22;47261;52.892;5.738;2024-03-22T10:35:06;11.20;99.90
61392;DHT22;47261;52.892;5.738;2024-03-22T10:37:33;11.20;99.90
61392;DHT22;47261;52.892;5.738;2024-03-22T10:40:01;11.30;99.90
61392;DHT22;47261;52.892;5.738;2024-03-22T10:42:39;11.40;99.90
61392;DHT22;47261;52.892;5.738;2024-03-22T10:45:07;11.40;99.90
61392;DHT22;47261;52.892;5.738;2024-03-22T10:47:34;11.40;99.90
61392;DHT22;47261;52.892;5.738;2024-03-22T10:50:11;11.40;99.90
61392;DHT22;47261;52.892;5.738;2024-03-22T10:52:46;11.40;99.90
61392;DHT22;47261;52.892;5.738;2024-03-22T10:55:24;11.40;99.90
61392;DHT22;47261;52.892;5.738;2024-03-22T10:57:53;11.30;99.90
61392;DHT22;47261;52.892;5.738;2024-03-22T11:00:30;11.30;99.90
61392;DHT22;47261;52.892;5.738;2024-03-22T11:02:56;11.30;99.90
61392;DHT22;47261;52.892;5.738;2024-03-22T11:05:22;11.20;99.90
61392;DHT22;47261;52.892;5.738;2024-03-22T11:07:57;11.20;99.90
61392;DHT22;47261;52.892;5.738;2024-03-22T11:10:28;11.20;99.90
61392;DHT22;47261;52.892;5.738;2024-03-22T11:12:55;11.20;99.90
61392;DHT22;47261;52.892;5.738;2024-03-22T11:15:22;11.10;99.90
61392;DHT22;47261;52.892;5.738;2024-03-22T11:17:47;11.00;99.90
61392;DHT22;47261;52.892;5.738;2024-03-22T11:20:15;10.90;99.90
61392;DHT22;47261;52.892;5.738;2024-03-22T11:22:41;10.80;99.90
61392;DHT22;47261;52.892;5.738;2024-03-22T11:25:06;10.80;99.90
61392;DHT22;47261;52.892;5.738;2024-03-22T11:27:32;10.80;99.90
61392;DHT22;47261;52.892;5.738;2024-03-22T11:29:58;10.80;99.90
61392;DHT22;47261;52.892;5.738;2024-03-22T11:32:24;10.90;99.90
61392;DHT22;47261;52.892;5.738;2024-03-22T11:34:50;10.80;99.90
61392;DHT22;47261;52.892;5.738;2024-03-22T11:37:15;10.90;99.90
61392;DHT22;47261;52.892;5.738;2024-03-22T11:39:41;10.90;99.90
61392;DHT22;47261;52.892;5.738;2024-03-22T11:42:08;10.90;99.90
61392;DHT22;47261;52.892;5.738;2024-03-22T11:44:36;11.00;99.90
61392;DHT22;47261;52.892;5.738;2024-03-22T11:47:03;11.10;99.90
61392;DHT22;47261;52.892;5.738;2024-03-22T11:49:29;11.10;99.90
61392;DHT22;47261;52.892;5.738;2024-03-22T11:51:58;11.20;99.90
61392;DHT22;47261;52.892;5.738;2024-03-22T11:54:23;11.20;99.90
61392;DHT22;47261;52.892;5.738;2024-03-22T11:56:49;11.30;99.90
61392;DHT22;47261;52.892;5.738;2024-03-22T11:59:17;11.30;99.90
61392;DHT22;47261;52.892;5.738;2024-03-22T12:01:44;11.30;99.90
61392;DHT22;47261;52.892;5.738;2024-03-22T12:04:10;11.40;99.90
61392;DHT22;47261;52.892;5.738;2024-03-22T12:06:42;11.40;99.90
61392;DHT22;47261;52.892;5.738;2024-03-22T12:09:07;11.50;99.90
61392;DHT22;47261;52.892;5.738;2024-03-22T12:11:35;11.50;99.90
61392;DHT22;47261;52.892;5.738;2024-03-22T12:14:00;11.60;99.90
61392;DHT22;47261;52.892;5.738;2024-03-22T12:16:26;11.60;99.90
61392;DHT22;47261;52.892;5.738;2024-03-22T12:18:51;11.60;99.90
61392;DHT22;47261;52.892;5.738;2024-03-22T12:21:17;11.60;99.90
61392;DHT22;47261;52.892;5.738;2024-03-22T12:23:43;11.60;99.90
61392;DHT22;47261;52.892;5.738;2024-03-22T12:26:08;11.60;99.90
61392;DHT22;47261;52.892;5.738;2024-03-22T12:28:34;11.60;99.90
61392;DHT22;47261;52.892;5.738;2024-03-22T12:30:59;11.60;99.90
61392;DHT22;47261;52.892;5.738;2024-03-22T12:33:25;11.60;99.90
61392;DHT22;47261;52.892;5.738;2024-03-22T12:35:50;11.60;99.90
61392;DHT22;47261;52.892;5.738;2024-03-22T12:38:16;11.60;99.90
61392;DHT22;47261;52.892;5.738;2024-03-22T12:40:43;11.60;99.90
61392;DHT22;47261;52.892;5.738;2024-03-22T12:43:09;11.60;99.90
61392;DHT22;47261;52.892;5.738;2024-03-22T12:45:36;11.70;99.90
61392;DHT22;47261;52.892;5.738;2024-03-22T12:48:01;11.70;99.90
61392;DHT22;47261;52.892;5.738;2024-03-22T12:50:27;11.70;99.90
61392;DHT22;47261;52.892;5.738;2024-03-22T12:52:53;11.70;99.90
61392;DHT22;47261;52.892;5.738;2024-03-22T12:55:19;11.70;99.90
61392;DHT22;47261;52.892;5.738;2024-03-22T12:57:45;11.80;99.90
61392;DHT22;47261;52.892;5.738;2024-03-22T13:00:11;11.80;99.90
61392;DHT22;47261;52.892;5.738;2024-03-22T13:02:46;11.80;99.90
61392;DHT22;47261;52.892;5.738;2024-03-22T13:05:12;11.80;99.90
61392;DHT22;47261;52.892;5.738;2024-03-22T13:07:38;11.80;99.90
61392;DHT22;47261;52.892;5.738;2024-03-22T13:10:05;11.80;99.90
61392;DHT22;47261;52.892;5.738;2024-03-22T13:12:31;11.80;99.90
61392;DHT22;47261;52.892;5.738;2024-03-22T13:14:57;11.70;99.90
61392;DHT22;47261;52.892;5.738;2024-03-22T13:17:23;11.70;99.90
61392;DHT22;47261;52.892;5.738;2024-03-22T13:19:49;11.70;99.90
61392;DHT22;47261;52.892;5.738;2024-03-22T13:22:14;11.60;99.90
61392;DHT22;47261;52.892;5.738;2024-03-22T13:24:44;11.60;99.90
61392;DHT22;47261;52.892;5.738;2024-03-22T13:27:10;11.60;99.90
61392;DHT22;47261;52.892;5.738;2024-03-22T13:29:35;11.50;99.90
61392;DHT22;47261;52.892;5.738;2024-03-22T13:32:01;11.50;99.90
61392;DHT22;47261;52.892;5.738;2024-03-22T13:34:26;11.50;99.90
61392;DHT22;47261;52.892;5.738;2024-03-22T13:36:52;11.50;99.90
61392;DHT22;47261;52.892;5.738;2024-03-22T13:39:18;11.50;99.90
61392;DHT22;47261;52.892;5.738;2024-03-22T13:41:43;11.40;99.90
61392;DHT22;47261;52.892;5.738;2024-03-22T13:44:09;11.40;99.90
61392;DHT22;47261;52.892;5.738;2024-03-22T13:46:34;11.40;99.90
61392;DHT22;47261;52.892;5.738;2024-03-22T13:49:13;11.40;99.90
61392;DHT22;47261;52.892;5.738;2024-03-22T13:51:41;11.40;99.90
61392;DHT22;47261;52.892;5.738;2024-03-22T13:54:06;11.30;99.90
61392;DHT22;47261;52.892;5.738;2024-03-22T13:56:32;11.30;99.90
61392;DHT22;47261;52.892;5.738;2024-03-22T13:58:57;11.20;99.90
61392;DHT22;47261;52.892;5.738;2024-03-22T14:01:23;11.20;99.90
61392;DHT22;47261;52.892;5.738;2024-03-22T14:03:49;11.20;99.90
61392;DHT22;47261;52.892;5.738;2024-03-22T14:06:14;11.20;99.90
61392;DHT22;47261;52.892;5.738;2024-03-22T14:08:40;11.30;99.90
61392;DHT22;47261;52.892;5.738;2024-03-22T14:11:05;11.30;99.90
61392;DHT22;47261;52.892;5.738;2024-03-22T14:13:31;11.30;99.90
61392;DHT22;47261;52.892;5.738;2024-03-22T14:15:56;11.30;99.90
61392;DHT22;47261;52.892;5.738;2024-03-22T14:18:22;11.30;99.90
61392;DHT22;47261;52.892;5.738;2024-03-22T14:20:48;11.20;99.90
61392;DHT22;47261;52.892;5.738;2024-03-22T14:23:14;11.20;99.90
61392;DHT22;47261;52.892;5.738;2024-03-22T14:25:39;11.10;99.90
61392;DHT22;47261;52.892;5.738;2024-03-22T14:28:05;11.10;99.90
61392;DHT22;47261;52.892;5.738;2024-03-22T14:30:31;11.10;99.90
61392;DHT22;47261;52.892;5.738;2024-03-22T14:32:56;11.10;99.90
61392;DHT22;47261;52.892;5.738;2024-03-22T14:35:22;11.10;99.90
61392;DHT22;47261;52.892;5.738;2024-03-22T14:37:48;11.10;99.90
61392;DHT22;47261;52.892;5.738;2024-03-22T14:40:13;11.10;99.90
61392;DHT22;47261;52.892;5.738;2024-03-22T14:42:40;11.10;99.90
61392;DHT22;47261;52.892;5.738;2024-03-22T14:45:06;11.10;99.90
61392;DHT22;47261;52.892;5.738;2024-03-22T14:47:37;11.10;99.90
61392;DHT22;47261;52.892;5.738;2024-03-22T14:50:03;11.10;99.90
61392;DHT22;47261;52.892;5.738;2024-03-22T14:52:32;11.20;99.90
61392;DHT22;47261;52.892;5.738;2024-03-22T14:54:58;11.10;99.90
61392;DHT22;47261;52.892;5.738;2024-03-22T14:57:23;11.20;99.90
61392;DHT22;47261;52.892;5.738;2024-03-22T14:59:49;11.10;99.90
61392;DHT22;47261;52.892;5.738;2024-03-22T15:02:18;11.10;99.90
61392;DHT22;47261;52.892;5.738;2024-03-22T15:04:43;11.10;99.90
61392;DHT22;47261;52.892;5.738;2024-03-22T15:07:09;11.00;99.90
61392;DHT22;47261;52.892;5.738;2024-03-22T15:09:34;11.00;99.90
61392;DHT22;47261;52.892;5.738;2024-03-22T15:12:00;11.00;99.90
61392;DHT22;47261;52.892;5.738;2024-03-22T15:14:26;11.10;99.90
61392;DHT22;47261;52.892;5.738;2024-03-22T15:16:55;11.10;99.90
61392;DHT22;47261;52.892;5.738;2024-03-22T15:19:20;11.10;99.90
61392;DHT22;47261;52.892;5.738;2024-03-22T15:21:47;11.00;99.90
61392;DHT22;47261;52.892;5.738;2024-03-22T15:24:13;11.10;99.90